Time;durP1;ratioP1;P1;durP2;ratioP2;P2;SDS_P1;SDS_P2;PMS_P1;PMS_P2;Temp;Humidity;BMP_temperature;BMP_pressure;BME280_temperature;BME280_humidity;BME280_pressure;Samples;Min_cycle;Max_cycle;Signal;HPM_P1;HPM_P2
2022/04/10 00:01:17;;;;;;;6.87;3.10;;;;;;;16.43;39.79;93392.88;5066937;28;20439;-74
2022/04/10 00:03:43;;;;;;;4.30;2.97;;;;;;;16.31;39.93;93393.13;5066780;28;20178;-75
2022/04/10 00:06:08;;;;;;;2.97;2.73;;;;;;;16.04;40.80;93394.09;5066019;28;20799;-75
2022/04/10 00:08:34;;;;;;;3.73;3.00;;;;;;;16.56;39.47;93390.53;5063145;28;20975;-75
2022/04/10 00:10:59;;;;;;;5.10;3.30;;;;;;;16.42;39.93;93392.09;5058130;28;20229;-75
2022/04/10 00:13:25;;;;;;;4.50;3.20;;;;;;;16.23;40.48;93385.72;5066389;28;20697;-75
2022/04/10 00:15:56;;;;;;;7.40;2.97;;;;;;;16.58;40.00;93382.38;5064358;28;20179;-75
2022/04/10 00:18:22;;;;;;;3.77;3.37;;;;;;;16.43;40.20;93380.50;5061723;28;20159;-76
2022/04/10 00:20:48;;;;;;;4.17;3.83;;;;;;;16.71;39.50;93381.03;5065108;28;20425;-75
2022/04/10 00:23:14;;;;;;;2.90;2.63;;;;;;;16.17;40.91;93388.34;5052055;28;20171;-75
2022/04/10 00:25:39;;;;;;;5.07;3.33;;;;;;;16.37;40.85;93381.50;5055907;28;20449;-76
2022/04/10 00:28:05;;;;;;;6.53;3.80;;;;;;;16.52;40.04;93373.63;5055826;28;20313;-76
2022/04/10 00:30:32;;;;;;;4.40;3.40;;;;;;;16.37;40.68;93384.16;5050756;28;20186;-76
2022/04/10 00:32:58;;;;;;;3.77;3.40;;;;;;;16.08;40.89;93392.53;5049514;28;20195;-76
2022/04/10 00:35:24;;;;;;;6.30;3.20;;;;;;;15.07;43.22;93372.50;5056786;28;20442;-76
2022/04/10 00:37:55;;;;;;;5.20;3.37;;;;;;;15.56;42.08;93380.97;5051399;28;20477;-76
2022/04/10 00:40:38;;;;;;;3.73;3.30;;;;;;;15.83;41.92;93395.09;5051422;28;20199;-76
2022/04/10 00:43:04;;;;;;;5.80;4.07;;;;;;;15.53;42.32;93388.59;5044058;28;20430;-76
2022/04/10 00:45:30;;;;;;;6.47;5.20;;;;;;;15.70;41.92;93378.66;5054696;28;20200;-76
2022/04/10 00:47:55;;;;;;;7.47;5.57;;;;;;;15.75;42.17;93381.34;5054404;28;20194;-75
2022/04/10 00:50:21;;;;;;;9.87;5.10;;;;;;;15.38;43.27;93387.44;5056580;28;20202;-76
2022/04/10 00:52:49;;;;;;;6.33;5.23;;;;;;;15.34;43.00;93372.41;5052979;28;20206;-75
2022/04/10 00:55:15;;;;;;;7.03;4.53;;;;;;;15.51;42.20;93359.06;5073107;28;20217;-76
2022/04/10 00:57:46;;;;;;;11.10;5.70;;;;;;;15.24;43.59;93362.59;5056207;28;20435;-76
2022/04/10 01:00:14;;;;;;;8.83;5.80;;;;;;;15.60;42.71;93368.06;5056005;28;20465;-76
2022/04/10 01:02:40;;;;;;;10.33;6.70;;;;;;;15.65;42.59;93354.09;5056816;28;20468;-76
2022/04/10 01:05:06;;;;;;;10.40;6.30;;;;;;;15.81;42.15;93353.13;5056879;28;20429;-76
2022/04/10 01:07:33;;;;;;;10.40;5.90;;;;;;;15.03;43.96;93343.25;5059721;28;20603;-74
2022/04/10 01:09:58;;;;;;;8.77;6.23;;;;;;;15.07;44.06;93338.25;5054954;28;20439;-76
2022/04/10 01:12:24;;;;;;;6.10;5.10;;;;;;;15.47;43.22;93327.13;5053931;28;20453;-76
2022/04/10 01:14:53;;;;;;;9.73;5.10;;;;;;;15.46;43.08;93336.09;5052263;28;20192;-76
2022/04/10 01:17:20;;;;;;;4.73;4.30;;;;;;;14.35;45.28;93327.94;5050503;28;20217;-76
2022/04/10 01:19:45;;;;;;;7.63;5.50;;;;;;;15.03;44.03;93312.41;5052729;28;20473;-76
2022/04/10 01:22:38;;;;;;;5.73;4.40;;;;;;;14.67;44.95;93321.13;5052363;28;20449;-76
2022/04/10 01:25:07;;;;;;;10.40;6.03;;;;;;;14.82;44.79;93326.50;5050333;28;20221;-76
2022/04/10 01:27:39;;;;;;;10.50;5.27;;;;;;;15.26;43.83;93320.97;5059759;28;20494;-76
2022/04/10 01:30:07;;;;;;;6.43;5.83;;;;;;;14.51;45.53;93331.50;5055041;28;20456;-76
2022/04/10 01:32:32;;;;;;;7.80;5.30;;;;;;;14.42;46.39;93344.34;5056276;28;20448;-76
2022/04/10 01:35:00;;;;;;;7.80;5.10;;;;;;;14.90;44.56;93320.75;5053349;28;20432;-76
2022/04/10 01:37:27;;;;;;;7.20;6.03;;;;;;;15.13;43.68;93322.22;5056007;28;20258;-76
2022/04/10 01:39:53;;;;;;;6.90;5.20;;;;;;;14.28;45.91;93339.72;5056913;28;20455;-76
2022/04/10 01:42:26;;;;;;;7.53;4.70;;;;;;;14.68;45.50;93344.56;5053964;28;20433;-77
2022/04/10 01:44:51;;;;;;;9.30;5.40;;;;;;;14.54;45.50;93356.53;5087436;28;20187;-76
2022/04/10 01:47:26;;;;;;;5.80;4.10;;;;;;;14.18;45.94;93354.38;5050317;28;20519;-77
2022/04/10 01:49:52;;;;;;;6.63;4.57;;;;;;;14.73;45.29;93343.81;5046231;28;20272;-76
2022/04/10 01:52:28;;;;;;;7.10;5.07;;;;;;;15.09;43.70;93346.69;5053277;28;20514;-76
2022/04/10 01:55:03;;;;;;;6.43;4.73;;;;;;;14.66;44.75;93348.50;5081845;28;20183;-77
2022/04/10 01:57:34;;;;;;;5.17;4.60;;;;;;;14.94;44.18;93342.91;5052916;28;20475;-77
2022/04/10 02:00:21;;;;;;;5.70;4.60;;;;;;;14.87;44.05;93338.91;5091757;28;20523;-77
2022/04/10 02:02:50;;;;;;;5.60;4.63;;;;;;;14.98;43.71;93333.44;5060037;28;20422;-77
2022/04/10 02:05:15;;;;;;;6.80;4.20;;;;;;;15.12;43.55;93331.19;5066900;28;20417;-77
2022/04/10 02:07:41;;;;;;;5.10;4.40;;;;;;;15.10;44.03;93322.75;5062105;28;20433;-77
2022/04/10 02:10:07;;;;;;;6.27;4.17;;;;;;;15.23;43.32;93314.38;5058361;28;20186;-77
2022/04/10 02:12:33;;;;;;;5.47;3.97;;;;;;;15.21;43.34;93318.31;5065499;28;20194;-77
2022/04/10 02:14:59;;;;;;;4.73;3.97;;;;;;;15.13;43.23;93322.22;5062021;28;20257;-77
2022/04/10 02:17:25;;;;;;;4.13;3.73;;;;;;;14.92;44.28;93331.06;5052944;28;20509;-76
2022/04/10 02:19:50;;;;;;;6.87;4.20;;;;;;;15.15;43.62;93341.19;5056839;28;20436;-76
2022/04/10 02:22:16;;;;;;;4.93;4.43;;;;;;;15.03;43.70;93324.81;5059457;28;20282;-76
2022/04/10 02:24:41;;;;;;;5.33;4.00;;;;;;;15.10;43.76;93330.66;5057380;28;20210;-76
2022/04/10 02:27:07;;;;;;;8.20;5.13;;;;;;;14.56;44.77;93339.44;5054813;28;20226;-77
2022/04/10 02:29:32;;;;;;;5.37;4.73;;;;;;;14.70;44.83;93339.88;5051592;28;20191;-77
2022/04/10 02:31:57;;;;;;;6.00;5.30;;;;;;;15.09;43.57;93326.41;5091475;28;20225;-76
2022/04/10 02:34:49;;;;;;;5.27;3.90;;;;;;;15.17;43.56;93327.78;5057794;28;20238;-76
2022/04/10 02:37:15;;;;;;;8.20;4.80;;;;;;;15.44;42.78;93335.53;5057871;28;20183;-76
2022/04/10 02:39:40;;;;;;;7.37;4.37;;;;;;;15.31;43.04;93328.91;5050281;28;20473;-76
2022/04/10 02:42:06;;;;;;;4.93;4.07;;;;;;;15.49;42.53;93334.78;5061863;28;20175;-76
2022/04/10 02:44:31;;;;;;;6.00;4.60;;;;;;;15.13;43.94;93334.59;5066684;28;20209;-76
2022/04/10 02:46:57;;;;;;;5.77;4.30;;;;;;;15.34;43.13;93331.00;5066981;28;20190;-76
2022/04/10 02:49:22;;;;;;;4.33;3.93;;;;;;;15.34;43.86;93346.84;5061746;28;20194;-77
2022/04/10 02:51:49;;;;;;;6.97;4.50;;;;;;;15.45;43.76;93339.00;5053098;28;20189;-77
2022/04/10 02:54:16;;;;;;;6.00;3.90;;;;;;;15.65;42.87;93325.09;5062075;28;20191;-76
2022/04/10 02:56:41;;;;;;;6.67;3.93;;;;;;;15.83;41.87;93344.97;5060093;28;20440;-76
2022/04/10 02:59:08;;;;;;;6.20;4.47;;;;;;;15.54;42.87;93345.38;5062123;28;20441;-76
2022/04/10 03:01:34;;;;;;;6.03;4.33;;;;;;;15.79;42.45;93340.19;5061712;28;20171;-76
2022/04/10 03:03:59;;;;;;;7.93;4.50;;;;;;;15.58;42.51;93343.78;5057226;28;20434;-76
2022/04/10 03:06:25;;;;;;;5.43;4.33;;;;;;;15.92;41.92;93343.44;5052356;28;20438;-76
2022/04/10 03:08:50;;;;;;;5.40;4.27;;;;;;;15.83;42.84;93350.25;5051297;28;20191;-76
2022/04/10 03:11:16;;;;;;;6.10;3.63;;;;;;;15.65;42.64;93354.91;5058339;28;20191;-76
2022/04/10 03:13:41;;;;;;;4.60;3.30;;;;;;;15.83;42.83;93355.53;5048259;28;20207;-76
2022/04/10 03:16:07;;;;;;;4.67;3.90;;;;;;;16.16;41.87;93352.47;5054886;28;20175;-76
2022/04/10 03:18:32;;;;;;;5.33;3.90;;;;;;;15.91;41.83;93360.28;5062509;28;20257;-76
2022/04/10 03:20:58;;;;;;;10.87;4.37;;;;;;;15.41;43.27;93365.06;5054363;28;20184;-76
2022/04/10 03:23:23;;;;;;;6.93;3.73;;;;;;;15.55;43.06;93370.66;5061173;28;20638;-76
2022/04/10 03:25:49;;;;;;;3.83;3.53;;;;;;;15.64;42.91;93363.06;5057595;28;20178;-77
2022/04/10 03:28:14;;;;;;;6.63;5.07;;;;;;;15.78;43.17;93365.00;5058021;28;20712;-77
2022/04/10 03:30:40;;;;;;;6.37;3.53;;;;;;;15.59;44.38;93356.72;5047419;28;20191;-76
2022/04/10 03:33:05;;;;;;;9.10;4.10;;;;;;;14.19;47.11;93361.25;5052757;28;20234;-76
2022/04/10 03:35:31;;;;;;;6.40;4.30;;;;;;;15.19;45.50;93354.66;5061669;28;20217;-76
2022/04/10 03:37:56;;;;;;;4.60;3.90;;;;;;;15.30;44.76;93369.47;5052329;28;20262;-77
2022/04/10 03:40:22;;;;;;;8.90;4.40;;;;;;;15.52;45.07;93355.38;5053340;28;20195;-77
2022/04/10 03:42:47;;;;;;;6.20;3.93;;;;;;;15.03;46.34;93359.84;5048213;28;20194;-76
2022/04/10 03:45:13;;;;;;;6.27;4.20;;;;;;;15.29;45.80;93367.09;5053205;28;20237;-76
2022/04/10 03:47:39;;;;;;;7.60;3.87;;;;;;;14.48;47.75;93363.59;5084483;28;20186;-76
2022/04/10 03:50:06;;;;;;;7.30;4.30;;;;;;;14.19;48.12;93361.25;5056246;28;20175;-76
2022/04/10 03:52:31;;;;;;;8.57;5.07;;;;;;;14.66;47.71;93374.84;5051599;28;20202;-76
2022/04/10 03:54:57;;;;;;;8.10;5.20;;;;;;;14.60;48.63;93387.94;5047025;28;20417;-76
2022/04/10 03:57:22;;;;;;;5.47;4.97;;;;;;;14.97;47.67;93392.47;5046870;28;20496;-77
2022/04/10 03:59:48;;;;;;;9.83;5.57;;;;;;;14.98;46.94;93393.25;5046310;28;20198;-76
2022/04/10 04:02:16;;;;;;;7.60;5.47;;;;;;;15.00;47.23;93381.41;5067178;28;20177;-77
2022/04/10 04:04:42;;;;;;;7.03;5.23;;;;;;;15.16;47.41;93397.34;5065610;28;20188;-76
2022/04/10 04:07:08;;;;;;;6.43;4.30;;;;;;;15.01;47.35;93396.19;5051775;28;20466;-76
2022/04/10 04:09:33;;;;;;;7.73;5.53;;;;;;;15.06;47.38;93394.63;5060711;28;20233;-76
2022/04/10 04:11:58;;;;;;;6.43;5.27;;;;;;;15.03;47.47;93401.19;5057347;28;20175;-77
2022/04/10 04:14:24;;;;;;;12.83;6.17;;;;;;;14.64;49.19;93415.38;5053316;28;20217;-76
2022/04/10 04:16:50;;;;;;;9.90;6.20;;;;;;;14.71;49.55;93414.38;5059421;28;20251;-75
2022/04/10 04:19:15;;;;;;;8.30;5.50;;;;;;;14.63;50.88;93407.72;5051045;28;20294;-76
2022/04/10 04:21:40;;;;;;;7.30;5.37;;;;;;;14.42;50.57;93423.28;5047165;28;20238;-76
2022/04/10 04:24:06;;;;;;;6.93;5.63;;;;;;;14.83;50.43;93438.69;5062798;28;20189;-75
2022/04/10 04:26:31;;;;;;;8.43;7.73;;;;;;;13.76;53.93;93438.34;5056429;28;20261;-76
2022/04/10 04:28:57;;;;;;;6.90;6.27;;;;;;;13.84;53.13;93443.16;5055014;28;20231;-75
2022/04/10 04:31:25;;;;;;;9.23;8.40;;;;;;;13.56;55.61;93450.16;5055774;28;20234;-75
2022/04/10 04:33:50;;;;;;;10.50;9.40;;;;;;;13.16;56.71;93459.00;5057728;28;20219;-75
2022/04/10 04:36:16;;;;;;;12.80;11.60;;;;;;;12.66;59.12;93468.44;5058984;28;20436;-75
2022/04/10 04:38:42;;;;;;;14.67;13.07;;;;;;;12.49;60.12;93473.66;5046765;28;20214;-76
2022/04/10 04:41:10;;;;;;;16.00;14.17;;;;;;;11.62;62.80;93465.91;5047154;28;20430;-75
2022/04/10 04:43:41;;;;;;;19.43;15.50;;;;;;;11.57;63.40;93471.03;5046870;28;20238;-75
2022/04/10 04:46:07;;;;;;;18.30;15.40;;;;;;;11.40;63.98;93469.13;5053370;28;20436;-75
2022/04/10 04:48:32;;;;;;;18.53;16.40;;;;;;;11.52;63.78;93477.75;5052594;28;20460;-76
2022/04/10 04:51:00;;;;;;;19.30;16.57;;;;;;;11.77;62.64;93500.28;5059896;28;20190;-75
2022/04/10 04:53:26;;;;;;;17.60;12.80;;;;;;;10.87;64.81;93467.34;5058570;28;20206;-76
2022/04/10 04:55:51;;;;;;;23.37;18.07;;;;;;;10.97;65.42;93501.63;5053675;28;20517;-76
2022/04/10 04:58:16;;;;;;;19.73;17.27;;;;;;;11.24;64.04;93495.97;5053737;28;20178;-76
2022/04/10 05:00:45;;;;;;;26.87;15.53;;;;;;;10.15;67.34;93489.06;5050950;28;20194;-75
2022/04/10 05:03:11;;;;;;;19.63;17.00;;;;;;;10.69;66.62;93505.66;5047962;28;20206;-75
2022/04/10 05:05:36;;;;;;;17.23;13.20;;;;;;;10.43;67.84;93521.69;5062109;28;20443;-75
2022/04/10 05:08:03;;;;;;;21.83;17.43;;;;;;;10.60;67.61;93525.28;5047118;28;20186;-75
2022/04/10 05:10:31;;;;;;;22.00;17.23;;;;;;;10.92;66.71;93517.19;5052417;28;20190;-75
2022/04/10 05:12:57;;;;;;;19.30;15.80;;;;;;;10.98;66.73;93516.28;5048662;28;20505;-75
2022/04/10 05:15:23;;;;;;;28.70;17.23;;;;;;;11.09;65.79;93514.72;5057275;28;20429;-76
2022/04/10 05:17:48;;;;;;;22.63;17.80;;;;;;;10.50;68.26;93509.34;5059044;28;20270;-76
2022/04/10 05:20:13;;;;;;;22.73;15.80;;;;;;;10.34;68.32;93514.16;5057274;28;20174;-76
2022/04/10 05:22:39;;;;;;;19.30;16.27;;;;;;;10.00;69.56;93512.94;5055155;28;20802;-75
2022/04/10 05:25:05;;;;;;;15.20;12.57;;;;;;;10.50;67.27;93517.19;5058282;28;20195;-75
2022/04/10 05:27:30;;;;;;;37.00;19.80;;;;;;;10.53;68.37;93511.53;5064973;28;20229;-75
2022/04/10 05:30:14;;;;;;;27.87;19.23;;;;;;;10.59;68.25;93518.47;5050383;28;20831;-75
2022/04/10 05:32:42;;;;;;;22.93;16.23;;;;;;;10.70;67.85;93502.03;5050404;28;20209;-75
2022/04/10 05:35:12;;;;;;;28.10;19.43;;;;;;;10.32;68.26;93510.97;5057746;28;20444;-75
2022/04/10 05:37:40;;;;;;;29.00;23.27;;;;;;;10.37;68.95;93501.66;5046004;28;20475;-75
2022/04/10 05:40:11;;;;;;;34.00;20.23;;;;;;;11.03;66.01;93511.19;5052089;28;20441;-75
2022/04/10 05:42:44;;;;;;;26.47;18.13;;;;;;;10.82;67.08;93504.66;5063189;28;20413;-76
2022/04/10 05:45:10;;;;;;;26.93;17.33;;;;;;;10.63;66.42;93509.16;5058044;28;20422;-75
2022/04/10 05:47:41;;;;;;;20.70;15.70;;;;;;;10.22;67.28;93515.88;5049905;28;20437;-75
2022/04/10 05:50:08;;;;;;;21.53;16.23;;;;;;;10.04;68.82;93523.78;5064336;28;20420;-75
2022/04/10 05:52:44;;;;;;;19.50;17.17;;;;;;;9.93;68.79;93528.69;5051667;28;20515;-75
2022/04/10 05:55:12;;;;;;;22.40;15.90;;;;;;;10.16;67.42;93537.69;5056817;28;20451;-75
2022/04/10 05:57:42;;;;;;;13.97;12.40;;;;;;;9.70;68.06;93549.44;5065310;28;20472;-73
2022/04/10 06:00:16;;;;;;;20.13;16.10;;;;;;;9.67;70.07;93540.19;5046912;28;20942;-75
2022/04/10 06:02:41;;;;;;;20.10;14.90;;;;;;;10.16;68.03;93548.13;5059714;28;20520;-74
2022/04/10 06:05:08;;;;;;;17.93;13.27;;;;;;;9.82;67.72;93547.69;5060010;28;20429;-75
2022/04/10 06:07:34;;;;;;;26.13;13.77;;;;;;;9.89;68.94;93558.88;5050738;28;20179;-75
2022/04/10 06:09:59;;;;;;;17.80;13.57;;;;;;;10.05;67.66;93564.53;5045777;28;20438;-75
2022/04/10 06:12:25;;;;;;;23.43;14.73;;;;;;;10.32;67.08;93568.50;5054092;28;20191;-75
2022/04/10 06:14:51;;;;;;;18.00;12.90;;;;;;;9.61;68.41;93559.34;5063942;28;20232;-75
2022/04/10 06:17:17;;;;;;;16.23;13.40;;;;;;;10.03;67.40;93566.59;5050151;28;20516;-75
2022/04/10 06:19:43;;;;;;;17.20;13.00;;;;;;;9.42;69.20;93555.91;5051267;28;20195;-74
2022/04/10 06:22:08;;;;;;;16.83;12.83;;;;;;;9.91;67.38;93564.69;5055367;28;20437;-75
2022/04/10 06:24:34;;;;;;;16.63;13.00;;;;;;;9.84;68.41;93568.38;5054065;28;20202;-75
2022/04/10 06:27:00;;;;;;;12.97;8.90;;;;;;;9.10;70.07;93560.38;5049451;28;20248;-75
2022/04/10 06:29:26;;;;;;;14.90;10.30;;;;;;;9.50;67.36;93571.28;5052347;28;20465;-75
2022/04/10 06:31:52;;;;;;;15.30;10.43;;;;;;;10.00;66.97;93580.06;5050113;28;20417;-75
2022/04/10 06:34:17;;;;;;;10.23;8.70;;;;;;;9.41;66.99;93570.00;5045039;28;20194;-75
2022/04/10 06:36:48;;;;;;;19.77;9.83;;;;;;;9.97;66.41;93574.28;5045384;28;20184;-75
2022/04/10 06:39:15;;;;;;;18.37;10.40;;;;;;;9.51;67.05;93570.28;5045560;28;20211;-75
2022/04/10 06:41:42;;;;;;;13.77;9.57;;;;;;;9.95;66.64;93571.06;5049559;28;20424;-75
2022/04/10 06:44:08;;;;;;;9.80;8.20;;;;;;;9.18;68.03;93573.97;5059432;28;20438;-75
2022/04/10 06:46:33;;;;;;;9.50;8.50;;;;;;;8.73;69.56;93555.00;5061302;28;20418;-75
2022/04/10 06:48:59;;;;;;;11.33;8.13;;;;;;;9.53;67.83;93563.03;5053047;28;20452;-74
2022/04/10 06:51:43;;;;;;;11.53;7.37;;;;;;;10.01;65.79;93563.38;5050645;28;20187;-75
2022/04/10 06:54:09;;;;;;;11.30;6.80;;;;;;;9.51;67.28;93572.91;5055124;28;20211;-75
2022/04/10 06:56:34;;;;;;;9.40;7.97;;;;;;;9.71;66.37;93577.16;5061551;28;20487;-75
2022/04/10 06:59:00;;;;;;;8.63;6.80;;;;;;;9.58;66.23;93554.56;5048135;28;20233;-75
2022/04/10 07:01:25;;;;;;;7.43;6.60;;;;;;;9.23;66.55;93556.88;5061140;28;20183;-74
2022/04/10 07:03:51;;;;;;;9.57;5.70;;;;;;;9.34;66.18;93564.00;5061890;28;20191;-74
2022/04/10 07:06:16;;;;;;;7.57;6.43;;;;;;;9.72;65.02;93560.47;5062592;28;20194;-75
2022/04/10 07:08:42;;;;;;;10.00;6.17;;;;;;;10.09;65.11;93570.94;5050476;28;20206;-75
2022/04/10 07:11:07;;;;;;;5.83;4.27;;;;;;;9.87;64.75;93568.75;5056314;28;20170;-75
2022/04/10 07:13:33;;;;;;;6.77;5.33;;;;;;;9.89;65.09;93564.09;5064400;28;20670;-75
2022/04/10 07:15:58;;;;;;;4.00;3.50;;;;;;;9.34;66.22;93571.84;5054782;28;20175;-75
2022/04/10 07:18:24;;;;;;;5.10;4.70;;;;;;;9.90;65.85;93568.34;5054492;28;20179;-76
2022/04/10 07:20:49;;;;;;;3.27;2.97;;;;;;;9.62;64.70;93579.25;5055038;28;20187;-75
2022/04/10 07:25:58;;;;;;;5.50;4.93;;;;;;;9.59;65.21;93577.06;5067215;28;20198;-75
2022/04/10 07:28:24;;;;;;;5.63;5.10;;;;;;;9.65;65.57;93570.16;5063931;28;20472;-75
2022/04/10 07:30:51;;;;;;;7.80;4.40;;;;;;;10.25;63.42;93578.19;5058230;28;21000;-75
2022/04/10 07:33:16;;;;;;;4.33;3.93;;;;;;;9.79;64.31;93584.72;5055733;28;20230;-75
2022/04/10 07:35:44;;;;;;;4.27;3.13;;;;;;;9.85;63.58;93589.06;5062303;28;20434;-75
2022/04/10 07:38:11;;;;;;;4.40;4.00;;;;;;;10.01;62.86;93597.38;5049587;28;20210;-75
2022/04/10 07:40:40;;;;;;;3.90;3.50;;;;;;;10.19;63.08;93586.94;5071593;28;20524;-76
2022/04/10 07:43:11;;;;;;;1.90;1.63;;;;;;;10.04;61.91;93586.50;5049873;28;20438;-75
2022/04/10 07:48:21;;;;;;;3.33;2.63;;;;;;;9.28;64.11;93580.53;5058092;28;20546;-75
2022/04/10 07:50:46;;;;;;;4.33;3.70;;;;;;;9.96;62.46;93580.53;5065448;28;20413;-75
2022/04/10 07:53:12;;;;;;;3.43;2.77;;;;;;;9.67;62.68;93579.38;5060025;28;20202;-75
2022/04/10 07:55:37;;;;;;;3.13;2.93;;;;;;;10.01;61.19;93577.25;5066126;28;20186;-75
2022/04/10 07:58:03;;;;;;;3.17;2.87;;;;;;;10.20;61.62;93600.78;5065943;28;20522;-75
2022/04/10 08:00:32;;;;;;;3.73;3.40;;;;;;;10.41;60.76;93587.28;5064265;28;20186;-75
2022/04/10 08:02:58;;;;;;;3.00;2.80;;;;;;;10.38;60.49;93600.81;5052656;28;20273;-75
2022/04/10 08:05:24;;;;;;;3.90;2.97;;;;;;;11.06;58.34;93605.00;5058719;28;20440;-74
2022/04/10 08:07:50;;;;;;;1.43;1.33;;;;;;;10.26;58.69;93598.13;5048009;28;21133;-75
2022/04/10 08:10:15;;;;;;;2.20;2.00;;;;;;;10.18;60.33;93603.63;5047093;28;20171;-76
2022/04/10 08:12:42;;;;;;;2.17;2.00;;;;;;;10.11;59.16;93600.25;5056456;28;20504;-75
2022/04/10 08:15:09;;;;;;;5.03;2.17;;;;;;;10.80;57.36;93611.38;5045132;28;20206;-75
2022/04/10 08:17:35;;;;;;;3.13;1.70;;;;;;;10.54;57.52;93604.66;5059189;28;20890;-75
2022/04/10 08:20:04;;;;;;;1.50;1.37;;;;;;;10.62;56.41;93600.94;5048958;28;20418;-75
2022/04/10 08:22:30;;;;;;;2.20;1.30;;;;;;;9.51;60.64;93593.78;5048161;28;20414;-73
2022/04/10 08:25:02;;;;;;;1.63;1.53;;;;;;;9.07;60.34;93613.78;5082189;28;20421;-75
2022/04/10 08:27:27;;;;;;;3.47;1.23;;;;;;;9.61;59.30;93613.41;5049837;28;20477;-75
2022/04/10 08:29:53;;;;;;;1.40;1.30;;;;;;;9.40;59.34;93620.59;5066212;28;20511;-76
2022/04/10 08:32:18;;;;;;;1.40;1.30;;;;;;;9.11;60.92;93620.19;5055424;28;20275;-75
2022/04/10 08:34:44;;;;;;;1.67;1.57;;;;;;;9.16;61.81;93637.81;5053998;28;20247;-74
2022/04/10 08:37:09;;;;;;;2.30;2.10;;;;;;;9.45;60.58;93640.88;5051345;28;20179;-74
2022/04/10 08:39:35;;;;;;;1.77;1.57;;;;;;;8.96;61.75;93638.75;5061660;28;20186;-75
2022/04/10 08:42:03;;;;;;;1.50;1.40;;;;;;;8.52;63.26;93647.38;5050340;28;20734;-75
2022/04/10 08:44:30;;;;;;;1.40;1.30;;;;;;;8.35;63.56;93647.78;5057063;28;21360;-74
2022/04/10 08:47:00;;;;;;;1.50;1.40;;;;;;;8.05;64.17;93651.88;5054791;28;20444;-75
2022/04/10 08:49:26;;;;;;;1.63;1.47;;;;;;;8.53;63.16;93662.00;5057232;28;20442;-74
2022/04/10 08:51:53;;;;;;;3.20;1.60;;;;;;;8.60;63.03;93668.00;5059888;28;20460;-74
2022/04/10 08:54:23;;;;;;;1.70;1.30;;;;;;;8.73;61.75;93654.91;5051301;28;20566;-74
2022/04/10 08:56:50;;;;;;;1.30;1.20;;;;;;;8.87;62.43;93679.13;5053907;28;20422;-74
2022/04/10 08:59:17;;;;;;;1.53;1.10;;;;;;;7.75;65.42;93660.13;5047503;28;20422;-74
2022/04/10 09:01:43;;;;;;;4.70;1.60;;;;;;;8.27;64.50;93681.09;5062753;28;20409;-74
2022/04/10 09:04:09;;;;;;;3.47;1.97;;;;;;;8.39;65.61;93680.25;5059821;28;20429;-75
2022/04/10 09:06:40;;;;;;;1.60;1.20;;;;;;;8.59;64.04;93700.28;5049680;28;20205;-75
2022/04/10 09:09:16;;;;;;;2.00;1.40;;;;;;;7.76;66.33;93700.78;5055593;28;20465;-74
2022/04/10 09:11:42;;;;;;;1.97;1.67;;;;;;;8.24;64.94;93697.16;5063159;28;20440;-74
2022/04/10 09:14:08;;;;;;;1.33;1.23;;;;;;;8.42;62.72;93694.72;5063604;28;20554;-74
2022/04/10 09:16:33;;;;;;;1.30;1.20;;;;;;;8.18;64.06;93693.53;5063035;28;20413;-75
2022/04/10 09:19:01;;;;;;;2.10;2.00;;;;;;;8.37;63.43;93694.50;5059290;28;20186;-74
2022/04/10 09:21:29;;;;;;;1.60;1.50;;;;;;;8.58;63.47;93702.09;5060543;28;20201;-74
2022/04/10 09:23:57;;;;;;;1.20;1.20;;;;;;;8.51;63.60;93701.31;5056745;28;20436;-75
2022/04/10 09:26:23;;;;;;;2.33;1.50;;;;;;;7.92;65.28;93702.19;5062625;28;21370;-74
2022/04/10 09:28:50;;;;;;;2.60;1.20;;;;;;;8.23;65.04;93685.91;5053817;28;20504;-74
2022/04/10 09:31:27;;;;;;;1.20;1.10;;;;;;;8.60;63.87;93701.91;5061807;28;20543;-74
2022/04/10 09:33:53;;;;;;;1.40;1.30;;;;;;;8.07;65.17;93704.59;5052913;28;20473;-75
2022/04/10 09:36:36;;;;;;;0.90;0.90;;;;;;;8.12;63.91;93694.34;5046252;28;20421;-74
2022/04/10 09:39:05;;;;;;;3.17;1.83;;;;;;;7.52;66.01;93696.97;5048956;28;20445;-74
2022/04/10 09:41:30;;;;;;;1.60;1.50;;;;;;;8.23;64.13;93690.31;5045045;28;20869;-74
2022/04/10 09:44:21;;;;;;;10.33;1.23;;;;;;;8.43;64.37;93695.53;5052707;28;20536;-75
2022/04/10 09:47:01;;;;;;;1.07;1.07;;;;;;;8.26;63.83;93711.56;5045972;28;20201;-75
2022/04/10 09:49:40;;;;;;;1.60;1.50;;;;;;;8.15;65.41;93722.59;5044435;28;20472;-75
2022/04/10 09:52:11;;;;;;;1.73;1.20;;;;;;;8.35;63.99;93706.94;5049325;28;20413;-74
2022/04/10 09:54:51;;;;;;;1.33;1.20;;;;;;;7.91;65.15;93713.59;5054772;28;20421;-74
2022/04/10 09:57:18;;;;;;;1.00;1.00;;;;;;;7.50;66.52;93707.56;5056830;28;20433;-74
2022/04/10 09:59:48;;;;;;;1.53;1.43;;;;;;;8.50;64.68;93717.16;5045025;28;20457;-74
2022/04/10 10:02:16;;;;;;;1.00;0.90;;;;;;;7.98;65.36;93715.19;5057862;28;20428;-74
2022/04/10 10:04:43;;;;;;;1.30;1.20;;;;;;;8.49;64.01;93716.34;5057534;28;20441;-74
2022/04/10 10:07:10;;;;;;;1.40;1.30;;;;;;;8.29;64.67;93708.56;5052460;28;20433;-75
2022/04/10 10:09:36;;;;;;;1.20;1.10;;;;;;;7.69;66.41;93715.59;5055935;28;20446;-74
2022/04/10 10:12:03;;;;;;;1.63;1.47;;;;;;;8.43;65.38;93713.78;5057214;28;20436;-74
2022/04/10 10:14:30;;;;;;;1.20;1.20;;;;;;;8.10;66.83;93711.97;5052485;28;20430;-75
2022/04/10 10:16:58;;;;;;;1.10;1.10;;;;;;;8.04;65.60;93712.78;5059188;28;20480;-74
2022/04/10 10:19:24;;;;;;;1.27;1.17;;;;;;;8.09;65.20;93705.19;5059210;28;20467;-74
2022/04/10 10:21:50;;;;;;;1.53;1.43;;;;;;;8.10;66.73;93707.59;5062985;28;20422;-74
2022/04/10 10:24:18;;;;;;;3.80;1.47;;;;;;;8.17;66.04;93700.53;5051733;28;20769;-74
2022/04/10 10:27:03;;;;;;;1.43;1.10;;;;;;;8.37;65.11;93695.31;5057363;28;20459;-74
2022/04/10 10:29:45;;;;;;;1.73;1.20;;;;;;;7.37;67.06;93686.72;5069415;28;20428;-74
2022/04/10 10:32:30;;;;;;;1.00;1.00;;;;;;;7.38;67.13;93690.91;5066146;28;20416;-74
2022/04/10 10:34:56;;;;;;;3.43;1.97;;;;;;;7.43;67.89;93693.75;5060338;28;20457;-75
2022/04/10 10:37:30;;;;;;;3.37;2.00;;;;;;;7.52;67.88;93695.16;5059371;28;20439;-74
2022/04/10 10:39:58;;;;;;;1.60;1.50;;;;;;;7.62;67.32;93695.56;5062027;28;20428;-74
2022/04/10 10:42:24;;;;;;;1.23;1.13;;;;;;;7.54;67.57;93690.56;5055342;28;20433;-75
2022/04/10 10:44:50;;;;;;;2.30;1.00;;;;;;;7.77;65.31;93681.53;5051489;28;20552;-74
2022/04/10 10:47:23;;;;;;;1.70;1.60;;;;;;;8.06;65.47;93679.53;5058049;28;20629;-75
2022/04/10 10:49:52;;;;;;;1.77;1.27;;;;;;;7.88;65.27;93678.34;5053842;28;20524;-74
2022/04/10 10:52:18;;;;;;;1.93;1.50;;;;;;;8.32;65.10;93679.47;5055449;28;20429;-74
2022/04/10 10:54:50;;;;;;;3.77;3.47;;;;;;;8.32;64.58;93676.88;5090202;28;20441;-75
2022/04/10 10:57:43;;;;;;;1.30;1.20;;;;;;;7.80;65.78;93670.75;5055836;28;20936;-74
2022/04/10 11:00:17;;;;;;;1.73;1.30;;;;;;;7.98;65.06;93667.50;5053421;28;20430;-74
2022/04/10 11:02:51;;;;;;;2.20;1.87;;;;;;;8.01;65.20;93669.72;5058311;28;20425;-74
2022/04/10 11:05:29;;;;;;;1.13;1.10;;;;;;;7.68;66.37;93678.34;5098281;28;20413;-74
2022/04/10 11:08:05;;;;;;;1.90;1.80;;;;;;;7.34;67.12;93672.31;5047201;28;20541;-74
2022/04/10 11:10:32;;;;;;;1.47;1.37;;;;;;;7.60;66.56;93661.13;5061714;28;20444;-75
2022/04/10 11:13:06;;;;;;;3.00;1.70;;;;;;;7.76;65.16;93659.13;5047423;28;20598;-74
2022/04/10 11:15:50;;;;;;;1.73;1.63;;;;;;;7.74;65.85;93661.09;5047229;28;20429;-74
2022/04/10 11:18:22;;;;;;;1.37;1.30;;;;;;;7.55;65.76;93667.91;5050478;28;20438;-75
2022/04/10 11:20:56;;;;;;;1.27;1.17;;;;;;;6.88;66.01;93659.22;5044678;28;20435;-74
2022/04/10 11:23:21;;;;;;;1.13;1.03;;;;;;;7.14;67.22;93671.50;5063334;28;20480;-75
2022/04/10 11:25:53;;;;;;;2.57;1.80;;;;;;;7.15;68.13;93676.50;5087702;28;20425;-74
2022/04/10 11:28:19;;;;;;;4.43;2.57;;;;;;;7.69;66.57;93668.75;5063120;28;20222;-76
2022/04/10 11:30:48;;;;;;;1.47;1.37;;;;;;;6.90;67.14;93662.41;5057315;28;20492;-75
2022/04/10 11:33:14;;;;;;;3.20;2.43;;;;;;;7.40;66.47;93666.31;5051013;28;20207;-76
2022/04/10 11:35:41;;;;;;;2.40;1.93;;;;;;;6.82;67.29;93653.78;5054032;28;20437;-74
2022/04/10 11:38:12;;;;;;;1.73;1.63;;;;;;;7.20;67.37;93661.06;5056924;28;20452;-75
2022/04/10 11:40:47;;;;;;;2.10;2.00;;;;;;;7.48;67.11;93667.13;5052667;28;20426;-75
2022/04/10 11:43:15;;;;;;;3.00;1.87;;;;;;;7.48;65.87;93657.50;5058862;28;20519;-76